Weather at Treichler Farm Airport

Public forecast

Using degrees Fahrenheit for public forecast. Weather courtesy of forecast.io.

Closest aviation weather report (METAR) to Treichler Farm Airport

Closest report is Buffalo Niagara International Airport, 14.9 nm (27.7 km) NW.

2024/05/24 17:54 (retrieved 48 minutes ago)

KBUF 241754Z 25011KT 10SM FEW055 FEW250 FEW300 24/09 A2989 RMK AO2 SLP120 T02440094 10244 20183 58001

Closest aviation forecast (TAF) to Treichler Farm Airport

Closest forecast is Buffalo Niagara International Airport, 14.9 nm (27.7 km) NW.

2024/05/24 18:36 (retrieved 6 minutes ago)

TAF KBUF 241734Z 2418/2518 24013KT P6SM SKC FM242300 31004KT P6SM SKC FM250900 11007KT P6SM SCT250 FM251200 22013G21KT P6SM BKN200 FM251500 25015G23KT P6SM VCSH BKN060